createdAt,value
2023-04-15T00:02:17.974Z,2.60
2023-04-15T00:04:49.149Z,3.40
2023-04-15T00:07:19.695Z,2.20
2023-04-15T00:09:50.078Z,2.20
2023-04-15T00:12:21.401Z,2.60
2023-04-15T00:14:52.178Z,2.60
2023-04-15T00:17:22.488Z,2.70
2023-04-15T00:19:53.155Z,2.20
2023-04-15T00:22:23.927Z,2.60
2023-04-15T00:24:54.755Z,2.60
2023-04-15T00:27:26.341Z,2.40
2023-04-15T00:29:57.058Z,1.90
2023-04-15T00:32:27.856Z,1.90
2023-04-15T00:34:58.593Z,2.30
2023-04-15T00:37:29.134Z,1.90
2023-04-15T00:39:59.734Z,2.70
2023-04-15T00:42:31.183Z,2.30
2023-04-15T00:45:02.977Z,3.00
2023-04-15T00:47:34.585Z,2.20
2023-04-15T00:50:05.533Z,2.20
2023-04-15T00:52:35.922Z,2.90
2023-04-15T00:55:08.521Z,3.10
2023-04-15T00:57:39.021Z,3.10
2023-04-15T01:00:11.970Z,3.50
2023-04-15T01:02:42.853Z,2.80
2023-04-15T01:05:13.554Z,2.80
2023-04-15T01:07:44.266Z,3.00
2023-04-15T01:10:14.890Z,2.50
2023-04-15T01:12:45.750Z,3.80
2023-04-15T01:15:16.412Z,3.20
2023-04-15T01:17:47.231Z,3.00
2023-04-15T01:20:18.014Z,3.50
2023-04-15T01:22:48.424Z,2.60
2023-04-15T01:25:20.826Z,2.70
2023-04-15T01:27:52.716Z,3.30
2023-04-15T01:30:23.241Z,3.30
2023-04-15T01:32:53.557Z,3.90
2023-04-15T01:35:24.862Z,3.50
2023-04-15T01:37:55.679Z,3.60
2023-04-15T01:40:26.666Z,3.00
2023-04-15T01:42:57.924Z,3.20
2023-04-15T01:45:28.817Z,3.00
2023-04-15T01:47:59.101Z,2.90
2023-04-15T01:50:29.948Z,2.80
2023-04-15T01:53:00.332Z,2.80
2023-04-15T01:55:30.833Z,2.60
2023-04-15T01:58:05.055Z,2.40
2023-04-15T02:00:35.384Z,3.80
2023-04-15T02:03:06.441Z,3.40
2023-04-15T02:05:37.953Z,4.40
2023-04-15T02:08:08.981Z,2.90
2023-04-15T02:10:39.552Z,4.10
2023-04-15T02:13:11.055Z,2.50
2023-04-15T02:15:41.847Z,3.00
2023-04-15T02:18:11.940Z,3.30
2023-04-15T02:20:43.892Z,3.30
2023-04-15T02:23:15.271Z,3.40
2023-04-15T02:25:53.296Z,4.00
2023-04-15T02:28:24.649Z,4.00
2023-04-15T02:30:57.365Z,6.00
2023-04-15T02:33:28.390Z,5.60
2023-04-15T02:35:59.190Z,4.00
2023-04-15T02:38:30.790Z,2.80
2023-04-15T02:41:01.414Z,3.20
2023-04-15T02:43:31.560Z,2.90
2023-04-15T02:46:02.886Z,2.60
2023-04-15T02:48:34.594Z,3.30
2023-04-15T02:51:15.738Z,3.00
2023-04-15T02:53:47.071Z,2.60
2023-04-15T02:56:17.805Z,3.50
2023-04-15T02:58:50.307Z,2.80
2023-04-15T03:01:20.933Z,2.50
2023-04-15T03:03:51.979Z,2.50
2023-04-15T03:06:22.817Z,2.20
2023-04-15T03:08:53.114Z,2.20
2023-04-15T03:11:23.319Z,2.40
2023-04-15T03:13:53.521Z,2.40
2023-04-15T03:16:23.798Z,2.40
2023-04-15T03:18:54.588Z,2.80
2023-04-15T03:21:24.726Z,3.10
2023-04-15T03:23:55.015Z,3.50
2023-04-15T03:26:29.662Z,2.60
2023-04-15T03:29:00.197Z,2.70
2023-04-15T03:31:30.783Z,3.30
2023-04-15T03:34:03.333Z,2.80
2023-04-15T03:36:36.724Z,3.30
2023-04-15T03:39:07.092Z,3.10
2023-04-15T03:41:37.361Z,2.30
2023-04-15T03:44:07.986Z,2.50
2023-04-15T03:46:38.396Z,2.60
2023-04-15T03:49:09.846Z,2.00
2023-04-15T03:51:41.645Z,2.50
2023-04-15T03:54:12.954Z,2.40
2023-04-15T03:56:44.801Z,1.80
2023-04-15T03:59:15.167Z,1.60
2023-04-15T04:01:46.029Z,2.80
2023-04-15T04:04:17.000Z,1.20
2023-04-15T04:06:47.928Z,1.60
2023-04-15T04:09:19.257Z,1.70
2023-04-15T04:11:50.498Z,1.20
2023-04-15T04:14:23.095Z,1.40
2023-04-15T04:16:53.400Z,2.00
2023-04-15T04:19:24.098Z,1.70
2023-04-15T04:21:55.149Z,1.90
2023-04-15T04:24:25.550Z,1.70
2023-04-15T04:26:57.917Z,1.60
2023-04-15T04:29:28.507Z,1.40
2023-04-15T04:31:59.285Z,1.30
2023-04-15T04:34:29.674Z,1.30
2023-04-15T04:37:11.989Z,1.50
2023-04-15T04:39:42.303Z,1.20
2023-04-15T04:42:12.934Z,1.30
2023-04-15T04:44:43.641Z,1.00
2023-04-15T04:47:13.844Z,1.10
2023-04-15T04:49:45.016Z,1.10
2023-04-15T04:52:16.028Z,1.00
2023-04-15T04:54:47.061Z,1.00
2023-04-15T04:57:17.830Z,1.50
2023-04-15T04:59:49.246Z,1.10
2023-04-15T05:02:26.909Z,1.60
2023-04-15T05:04:58.226Z,1.10
2023-04-15T05:07:29.199Z,1.40
2023-04-15T05:09:59.305Z,0.90
2023-04-15T05:12:29.611Z,0.90
2023-04-15T05:15:01.004Z,0.80
2023-04-15T05:17:33.092Z,1.30
2023-04-15T05:20:04.112Z,0.80
2023-04-15T05:22:35.779Z,0.80
2023-04-15T05:25:07.633Z,0.70
2023-04-15T05:27:38.350Z,0.70
2023-04-15T05:30:13.545Z,0.80
2023-04-15T05:32:45.535Z,0.60
2023-04-15T05:35:17.413Z,1.00
2023-04-15T05:37:49.244Z,1.00
2023-04-15T05:40:22.643Z,0.70
2023-04-15T05:42:52.889Z,0.80
2023-04-15T05:45:23.264Z,0.60
2023-04-15T05:47:54.469Z,1.20
2023-04-15T05:50:27.514Z,0.70
2023-04-15T05:53:01.211Z,0.60
2023-04-15T05:55:36.350Z,0.80
2023-04-15T05:58:07.810Z,0.80
2023-04-15T06:00:41.370Z,2.50
2023-04-15T06:03:12.274Z,0.60
2023-04-15T06:05:45.003Z,1.20
2023-04-15T06:08:18.069Z,0.80
2023-04-15T06:10:52.079Z,0.60
2023-04-15T06:13:24.938Z,1.30
2023-04-15T06:15:56.005Z,0.60
2023-04-15T06:18:28.462Z,0.60
2023-04-15T06:21:00.890Z,0.90
2023-04-15T06:23:36.214Z,0.60
2023-04-15T06:26:06.714Z,0.80
2023-04-15T06:28:38.007Z,0.60
2023-04-15T06:31:10.923Z,0.70
2023-04-15T06:33:41.748Z,0.60
2023-04-15T06:36:12.393Z,0.70
2023-04-15T06:38:42.737Z,0.70
2023-04-15T06:41:13.033Z,0.70
2023-04-15T06:43:43.612Z,0.40
2023-04-15T06:46:16.518Z,0.60
2023-04-15T06:48:47.386Z,0.40
2023-04-15T06:51:18.235Z,0.60
2023-04-15T06:53:48.975Z,0.40
2023-04-15T06:56:19.580Z,0.50
2023-04-15T06:58:50.521Z,0.40
2023-04-15T07:01:23.995Z,0.60
2023-04-15T07:03:54.856Z,0.50
2023-04-15T07:06:25.801Z,0.60
2023-04-15T07:08:57.617Z,0.80
2023-04-15T07:11:30.054Z,0.60
2023-04-15T07:14:14.699Z,0.50
2023-04-15T07:16:45.628Z,0.40
2023-04-15T07:19:15.957Z,0.40
2023-04-15T07:21:47.465Z,0.50
2023-04-15T07:24:19.509Z,0.70
2023-04-15T07:26:50.018Z,0.60
2023-04-15T07:29:21.066Z,0.70
2023-04-15T07:31:52.138Z,1.10
2023-04-15T07:34:23.315Z,0.50
2023-04-15T07:36:54.726Z,0.30
2023-04-15T07:39:26.952Z,0.70
2023-04-15T07:41:59.175Z,0.80
2023-04-15T07:44:29.965Z,0.70
2023-04-15T07:47:02.169Z,0.70
2023-04-15T07:49:33.084Z,0.70
2023-04-15T07:52:04.288Z,0.60
2023-04-15T07:54:35.945Z,0.50
2023-04-15T07:57:06.570Z,0.80
2023-04-15T07:59:39.064Z,0.70
2023-04-15T08:02:13.002Z,0.90
2023-04-15T08:04:44.822Z,1.00
2023-04-15T08:07:17.859Z,0.70
2023-04-15T08:09:48.533Z,0.60
2023-04-15T08:12:19.325Z,1.70
2023-04-15T08:14:50.480Z,1.00
2023-04-15T08:17:21.655Z,1.10
2023-04-15T08:19:53.625Z,1.90
2023-04-15T08:22:27.432Z,1.50
2023-04-15T08:24:59.433Z,1.80
2023-04-15T08:27:30.071Z,0.70
2023-04-15T08:30:03.428Z,1.00
2023-04-15T08:32:36.507Z,1.00
2023-04-15T08:35:10.312Z,1.30
2023-04-15T08:37:57.721Z,1.00
2023-04-15T08:40:34.445Z,0.90
2023-04-15T08:43:09.521Z,1.30
2023-04-15T08:45:41.337Z,1.30
2023-04-15T08:48:11.957Z,1.40
2023-04-15T08:50:42.648Z,1.40
2023-04-15T08:53:14.380Z,1.60
2023-04-15T08:55:46.572Z,1.20
2023-04-15T08:58:21.301Z,1.50
2023-04-15T09:00:53.348Z,1.30
2023-04-15T09:03:33.039Z,1.60
2023-04-15T09:06:09.318Z,1.70
2023-04-15T09:08:45.247Z,1.40
2023-04-15T09:11:19.463Z,1.80
2023-04-15T09:13:54.016Z,3.50
2023-04-15T09:16:24.620Z,2.10
2023-04-15T09:18:56.372Z,1.80
2023-04-15T09:21:37.578Z,1.20
2023-04-15T09:24:08.561Z,2.50
2023-04-15T09:26:45.064Z,0.90
2023-04-15T09:29:18.331Z,1.50
2023-04-15T09:31:50.185Z,1.80
2023-04-15T09:34:23.406Z,1.10
2023-04-15T09:36:57.931Z,1.40
2023-04-15T09:42:10.167Z,1.50
2023-04-15T09:44:42.016Z,1.50
2023-04-15T09:47:30.038Z,1.00
2023-04-15T09:50:00.810Z,0.90
2023-04-15T09:52:31.814Z,1.20
2023-04-15T09:55:06.297Z,1.40
2023-04-15T09:57:41.644Z,1.70
2023-04-15T10:00:13.699Z,1.10
2023-04-15T10:02:44.493Z,1.60
2023-04-15T10:05:17.990Z,1.00
2023-04-15T10:07:48.785Z,1.40
2023-04-15T10:10:19.366Z,1.60
2023-04-15T10:12:53.792Z,1.20
2023-04-15T10:15:25.396Z,1.80
2023-04-15T10:17:58.020Z,1.00
2023-04-15T10:20:28.420Z,1.10
2023-04-15T10:22:59.214Z,1.00
2023-04-15T10:25:30.768Z,0.80
2023-04-15T10:28:02.067Z,0.90
2023-04-15T10:30:36.435Z,1.00
2023-04-15T10:33:07.866Z,0.90
2023-04-15T10:35:41.508Z,1.10
2023-04-15T10:38:36.626Z,0.70
2023-04-15T10:41:19.545Z,1.40
2023-04-15T10:43:53.097Z,0.90
2023-04-15T10:46:37.334Z,0.70
2023-04-15T10:49:11.982Z,1.30
2023-04-15T10:51:44.768Z,1.40
2023-04-15T10:54:17.624Z,1.30
2023-04-15T10:56:53.430Z,1.00
2023-04-15T10:59:24.166Z,1.70
2023-04-15T11:01:59.928Z,1.30
2023-04-15T11:04:55.096Z,1.60
2023-04-15T11:07:40.487Z,1.30
2023-04-15T11:10:52.365Z,1.50
2023-04-15T11:13:29.095Z,1.20
2023-04-15T11:16:03.666Z,1.70
2023-04-15T11:18:37.273Z,0.70
2023-04-15T11:21:11.942Z,1.70
2023-04-15T11:23:47.303Z,0.80
2023-04-15T11:26:27.951Z,1.00
2023-04-15T11:29:01.832Z,0.70
2023-04-15T11:31:37.297Z,1.40
2023-04-15T11:34:07.729Z,1.40
2023-04-15T11:36:38.506Z,1.50
2023-04-15T11:39:09.061Z,1.50
2023-04-15T11:41:39.730Z,0.80
2023-04-15T11:44:18.975Z,1.90
2023-04-15T11:46:50.407Z,1.30
2023-04-15T11:49:31.083Z,1.20
2023-04-15T11:52:02.085Z,2.60
2023-04-15T11:54:32.543Z,1.50
2023-04-15T11:57:03.923Z,2.10
2023-04-15T11:59:45.976Z,1.70
2023-04-15T12:02:20.339Z,1.00
2023-04-15T12:04:50.970Z,1.30
2023-04-15T12:07:21.492Z,1.30
2023-04-15T12:09:57.966Z,2.00
2023-04-15T12:12:30.679Z,1.10
2023-04-15T12:15:01.714Z,0.90
2023-04-15T12:17:32.232Z,0.90
2023-04-15T12:20:27.120Z,1.00
2023-04-15T12:23:07.830Z,1.40
2023-04-15T12:25:38.441Z,1.30
2023-04-15T12:28:13.842Z,1.00
2023-04-15T12:30:52.277Z,2.10
2023-04-15T12:33:23.483Z,1.00
2023-04-15T12:35:57.384Z,1.70
2023-04-15T12:38:29.267Z,1.00
2023-04-15T12:40:59.553Z,1.10
2023-04-15T12:43:30.222Z,1.10
2023-04-15T12:46:00.327Z,2.60
2023-04-15T12:48:33.025Z,2.20
2023-04-15T12:51:05.673Z,1.20
2023-04-15T12:53:37.162Z,1.80
2023-04-15T12:56:09.550Z,1.30
2023-04-15T12:58:40.088Z,1.80
2023-04-15T13:01:11.281Z,0.80
2023-04-15T13:03:42.253Z,1.20
2023-04-15T13:06:13.140Z,0.70
2023-04-15T13:08:58.343Z,1.00
2023-04-15T13:11:34.348Z,2.00
2023-04-15T13:14:06.652Z,1.10
2023-04-15T13:16:37.320Z,1.50
2023-04-15T13:19:08.525Z,0.80
2023-04-15T13:21:39.188Z,2.10
2023-04-15T13:24:09.699Z,1.30
2023-04-15T13:26:40.456Z,1.40
2023-04-15T13:29:11.980Z,1.70
2023-04-15T13:31:43.493Z,1.40
2023-04-15T13:34:14.115Z,1.30
2023-04-15T13:36:45.884Z,1.40
2023-04-15T13:39:17.766Z,1.20
2023-04-15T13:41:49.827Z,1.30
2023-04-15T13:44:22.856Z,1.20
2023-04-15T13:46:54.219Z,0.90
2023-04-15T13:49:26.028Z,0.90
2023-04-15T13:51:57.941Z,2.40
2023-04-15T13:54:37.481Z,1.00
2023-04-15T13:57:08.918Z,1.20
2023-04-15T13:59:39.883Z,1.60
2023-04-15T14:02:12.973Z,1.40
2023-04-15T14:04:44.601Z,1.70
2023-04-15T14:07:15.140Z,1.10
2023-04-15T14:09:46.305Z,1.20
2023-04-15T14:12:16.897Z,1.30
2023-04-15T14:14:47.613Z,1.40
2023-04-15T14:17:18.449Z,1.40
2023-04-15T14:19:49.654Z,1.30
2023-04-15T14:22:20.433Z,2.00
2023-04-15T14:24:58.473Z,1.20
2023-04-15T14:27:29.144Z,1.30
2023-04-15T14:29:59.880Z,1.40
2023-04-15T14:32:30.446Z,1.10
2023-04-15T14:35:00.874Z,1.30
2023-04-15T14:37:31.573Z,0.90
2023-04-15T14:40:02.025Z,1.00
2023-04-15T14:42:32.482Z,1.70
2023-04-15T14:45:03.218Z,1.80
2023-04-15T14:47:33.701Z,3.60
2023-04-15T14:50:05.496Z,0.90
2023-04-15T14:52:38.854Z,1.10
2023-04-15T14:55:11.833Z,2.40
2023-04-15T14:57:43.727Z,1.20
2023-04-15T15:00:16.357Z,1.70
2023-04-15T15:03:04.288Z,1.70
2023-04-15T15:05:35.466Z,2.50
2023-04-15T15:08:06.132Z,2.40
2023-04-15T15:10:49.261Z,1.50
2023-04-15T15:13:21.553Z,1.80
2023-04-15T15:16:00.208Z,1.90
2023-04-15T15:18:30.899Z,1.80
2023-04-15T15:21:01.869Z,1.40
2023-04-15T15:23:32.261Z,2.00
2023-04-15T15:26:02.837Z,1.90
2023-04-15T15:28:33.251Z,1.60
2023-04-15T15:31:04.273Z,2.40
2023-04-15T15:33:35.433Z,1.60
2023-04-15T15:36:07.018Z,2.20
2023-04-15T15:38:39.527Z,1.50
2023-04-15T15:41:10.078Z,1.70
2023-04-15T15:43:43.440Z,1.20
2023-04-15T15:46:13.839Z,1.70
2023-04-15T15:48:44.917Z,1.30
2023-04-15T15:51:15.750Z,1.40
2023-04-15T15:53:49.643Z,1.70
2023-04-15T15:56:20.089Z,1.90
2023-04-15T15:58:52.767Z,2.40
2023-04-15T16:01:23.821Z,1.20
2023-04-15T16:03:54.730Z,1.70
2023-04-15T16:06:27.676Z,4.30
2023-04-15T16:08:58.105Z,1.40
2023-04-15T16:11:29.449Z,6.90
2023-04-15T16:14:02.162Z,2.50
2023-04-15T16:16:32.601Z,1.70
2023-04-15T16:19:06.735Z,2.00
2023-04-15T16:21:37.358Z,1.80
2023-04-15T16:24:08.944Z,1.80
2023-04-15T16:26:39.699Z,2.00
2023-04-15T16:29:14.499Z,1.60
2023-04-15T16:31:45.077Z,1.70
2023-04-15T16:34:17.444Z,2.10
2023-04-15T16:36:49.716Z,1.90
2023-04-15T16:39:24.224Z,2.30
2023-04-15T16:41:55.343Z,2.30
2023-04-15T16:44:26.103Z,1.80
2023-04-15T16:46:59.392Z,1.90
2023-04-15T16:49:30.007Z,2.20
2023-04-15T16:52:00.739Z,2.10
2023-04-15T16:54:32.417Z,1.60
2023-04-15T16:57:03.178Z,2.20
2023-04-15T16:59:33.459Z,2.50
2023-04-15T17:02:03.903Z,1.70
2023-04-15T17:04:35.663Z,1.60
2023-04-15T17:07:11.021Z,3.00
2023-04-15T17:09:41.968Z,4.80
2023-04-15T17:12:12.500Z,4.80
2023-04-15T17:14:42.721Z,1.70
2023-04-15T17:17:13.133Z,2.20
2023-04-15T17:19:43.661Z,2.80
2023-04-15T17:22:14.418Z,2.70
2023-04-15T17:24:44.895Z,2.90
2023-04-15T17:27:15.356Z,2.10
2023-04-15T17:29:46.573Z,2.20
2023-04-15T17:32:18.129Z,2.10
2023-04-15T17:34:50.773Z,2.70
2023-04-15T17:37:21.744Z,2.50
2023-04-15T17:39:52.651Z,1.90
2023-04-15T17:42:23.109Z,2.20
2023-04-15T17:44:56.709Z,1.90
2023-04-15T17:47:27.831Z,4.90
2023-04-15T17:49:59.244Z,2.70
2023-04-15T17:52:31.083Z,2.60
2023-04-15T17:55:01.717Z,1.80
2023-04-15T17:57:32.421Z,2.20
2023-04-15T18:00:10.910Z,2.30
2023-04-15T18:02:42.386Z,1.30
2023-04-15T18:05:12.898Z,2.00
2023-04-15T18:07:43.770Z,2.00
2023-04-15T18:10:14.880Z,1.50
2023-04-15T18:12:45.219Z,1.60
2023-04-15T18:15:15.554Z,2.00
2023-04-15T18:17:46.473Z,2.10
2023-04-15T18:20:16.916Z,2.20
2023-04-15T18:22:47.352Z,2.10
2023-04-15T18:25:18.076Z,2.20
2023-04-15T18:27:48.522Z,2.10
2023-04-15T18:30:19.330Z,1.90
2023-04-15T18:32:49.741Z,2.10
2023-04-15T18:35:20.465Z,2.70
2023-04-15T18:37:51.999Z,2.20
2023-04-15T18:40:22.517Z,4.40
2023-04-15T18:42:52.939Z,4.00
2023-04-15T18:45:23.628Z,4.50
2023-04-15T18:47:54.645Z,2.20
2023-04-15T18:50:26.217Z,3.40
2023-04-15T18:52:59.632Z,2.90
2023-04-15T18:55:30.288Z,2.10
2023-04-15T18:58:08.460Z,2.80
2023-04-15T19:00:44.425Z,2.20
2023-04-15T19:03:15.362Z,2.50
2023-04-15T19:05:45.848Z,2.10
2023-04-15T19:08:17.398Z,2.60
2023-04-15T19:10:50.362Z,3.60
2023-04-15T19:13:22.358Z,2.80
2023-04-15T19:15:52.742Z,2.10
2023-04-15T19:18:23.596Z,2.30
2023-04-15T19:20:56.938Z,2.20
2023-04-15T19:23:28.474Z,2.10
2023-04-15T19:25:59.436Z,2.50
2023-04-15T19:28:30.221Z,3.20
2023-04-15T19:31:01.143Z,3.40
2023-04-15T19:33:32.022Z,4.00
2023-04-15T19:36:05.138Z,3.70
2023-04-15T19:38:37.200Z,4.70
2023-04-15T19:41:09.868Z,4.30
2023-04-15T19:43:40.953Z,3.50
2023-04-15T19:46:12.800Z,4.50
2023-04-15T19:48:43.486Z,3.50
2023-04-15T19:51:14.880Z,3.60
2023-04-15T19:53:45.927Z,2.90
2023-04-15T19:56:16.418Z,3.00
2023-04-15T19:58:52.369Z,3.00
2023-04-15T20:01:23.374Z,2.80
2023-04-15T20:03:55.420Z,3.50
2023-04-15T20:06:30.137Z,2.70
2023-04-15T20:09:00.666Z,2.70
2023-04-15T20:12:47.215Z,3.30
2023-04-15T20:14:25.065Z,3.10
2023-04-15T20:16:55.721Z,3.40
2023-04-15T20:19:28.538Z,2.80
2023-04-15T20:21:59.392Z,3.60
2023-04-15T20:24:31.761Z,4.30
2023-04-15T20:27:03.848Z,2.90
2023-04-15T20:29:38.489Z,3.90
2023-04-15T20:32:11.149Z,3.30
2023-04-15T20:34:42.492Z,2.60
2023-04-15T20:37:13.278Z,3.10
2023-04-15T20:39:45.669Z,3.30
2023-04-15T20:42:16.473Z,4.00
2023-04-15T20:44:48.010Z,3.50
2023-04-15T20:47:18.531Z,3.30
2023-04-15T20:49:49.622Z,2.40
2023-04-15T20:52:20.189Z,2.60
2023-04-15T20:54:50.576Z,3.70
2023-04-15T20:57:21.101Z,3.60
2023-04-15T20:59:51.362Z,3.60
2023-04-15T21:02:21.902Z,2.50
2023-04-15T21:04:52.601Z,3.50
2023-04-15T21:07:23.812Z,3.00
2023-04-15T21:09:55.797Z,3.70
2023-04-15T21:12:26.740Z,3.00
2023-04-15T21:14:57.362Z,3.20
2023-04-15T21:17:28.818Z,3.10
2023-04-15T21:19:59.425Z,3.10
2023-04-15T21:22:29.717Z,3.80
2023-04-15T21:25:01.021Z,3.50
2023-04-15T21:27:31.485Z,3.30
2023-04-15T21:30:02.515Z,3.40
2023-04-15T21:32:32.815Z,3.60
2023-04-15T21:35:05.449Z,3.30
2023-04-15T21:37:37.300Z,3.50
2023-04-15T21:40:10.114Z,3.40
2023-04-15T21:42:42.200Z,3.70
2023-04-15T21:45:14.122Z,3.30
2023-04-15T21:47:56.769Z,3.20
2023-04-15T21:50:36.306Z,4.20
2023-04-15T21:53:09.250Z,3.90
2023-04-15T21:55:39.676Z,4.00
2023-04-15T21:58:10.162Z,4.80
2023-04-15T22:00:40.972Z,4.10
2023-04-15T22:03:12.325Z,4.00
2023-04-15T22:05:46.032Z,2.90
2023-04-15T22:08:16.703Z,2.70
2023-04-15T22:10:47.084Z,2.20
2023-04-15T22:13:20.630Z,2.40
2023-04-15T22:15:51.033Z,3.30
2023-04-15T22:18:22.083Z,2.70
2023-04-15T22:20:53.262Z,3.00
2023-04-15T22:23:23.585Z,3.80
2023-04-15T22:25:54.123Z,3.80
2023-04-15T22:28:24.762Z,4.00
2023-04-15T22:30:56.007Z,3.30
2023-04-15T22:33:26.413Z,3.90
2023-04-15T22:35:57.344Z,4.70
2023-04-15T22:38:27.754Z,4.90
2023-04-15T22:40:58.953Z,4.70
2023-04-15T22:43:29.604Z,4.40
2023-04-15T22:46:00.884Z,4.30
2023-04-15T22:48:31.315Z,4.60
2023-04-15T22:51:04.469Z,3.50
2023-04-15T22:53:35.011Z,3.60
2023-04-15T22:56:05.684Z,3.50
2023-04-15T22:58:37.463Z,4.00
2023-04-15T23:01:08.304Z,3.90
2023-04-15T23:03:56.347Z,4.20
2023-04-15T23:06:36.359Z,4.20
2023-04-15T23:09:06.921Z,4.60
2023-04-15T23:11:37.525Z,5.30
2023-04-15T23:14:07.814Z,3.40
2023-04-15T23:16:38.152Z,4.40
2023-04-15T23:19:08.956Z,3.70
2023-04-15T23:21:39.491Z,3.80
2023-04-15T23:24:10.063Z,3.40
2023-04-15T23:26:40.757Z,3.50
2023-04-15T23:29:11.814Z,4.70
2023-04-15T23:31:42.390Z,4.20
2023-04-15T23:34:12.800Z,4.40
2023-04-15T23:36:43.298Z,4.10
2023-04-15T23:39:13.431Z,4.20
2023-04-15T23:41:43.648Z,3.50
2023-04-15T23:44:13.955Z,4.90
2023-04-15T23:46:44.265Z,4.50
2023-04-15T23:49:14.375Z,4.20
2023-04-15T23:51:44.645Z,4.00
2023-04-15T23:54:16.231Z,3.70
2023-04-15T23:56:46.467Z,4.70
2023-04-15T23:59:19.717Z,4.00
